createdAt,value
2018-10-03T00:00:49.697Z,99.90
2018-10-03T00:03:18.135Z,99.90
2018-10-03T00:05:46.657Z,99.90
2018-10-03T00:08:15.207Z,99.90
2018-10-03T00:10:43.781Z,99.90
2018-10-03T00:13:12.423Z,99.90
2018-10-03T00:15:41.055Z,99.90
2018-10-03T00:18:10.057Z,99.90
2018-10-03T00:20:38.638Z,99.90
2018-10-03T00:23:07.503Z,99.90
2018-10-03T00:25:36.145Z,99.90
2018-10-03T00:28:04.906Z,99.90
2018-10-03T00:30:33.665Z,99.90
2018-10-03T00:33:02.316Z,99.90
2018-10-03T00:35:31.038Z,99.90
2018-10-03T00:37:59.743Z,99.90
2018-10-03T00:40:28.638Z,99.90
2018-10-03T00:42:57.265Z,99.90
2018-10-03T00:45:26.244Z,99.90
2018-10-03T00:47:54.722Z,99.90
2018-10-03T00:50:23.220Z,99.90
2018-10-03T00:52:51.722Z,99.90
2018-10-03T00:55:20.202Z,99.90
2018-10-03T00:57:49.029Z,99.90
2018-10-03T01:00:17.949Z,99.90
2018-10-03T01:02:46.702Z,99.90
2018-10-03T01:05:15.312Z,99.90
2018-10-03T01:07:43.765Z,99.90
2018-10-03T01:10:12.248Z,99.90
2018-10-03T01:12:40.808Z,99.90
2018-10-03T01:15:09.359Z,99.90
2018-10-03T01:17:38.124Z,99.90
2018-10-03T01:20:07.005Z,99.90
2018-10-03T01:22:35.497Z,99.90
2018-10-03T01:25:04.128Z,99.90
2018-10-03T01:27:32.626Z,99.90
2018-10-03T01:30:01.618Z,99.90
2018-10-03T01:32:30.516Z,99.90
2018-10-03T01:34:59.067Z,99.90
2018-10-03T01:37:27.958Z,99.90
2018-10-03T01:39:56.441Z,99.90
2018-10-03T01:42:24.951Z,99.90
2018-10-03T01:44:53.403Z,99.90
2018-10-03T01:47:21.858Z,99.90
2018-10-03T01:49:50.473Z,99.90
2018-10-03T01:52:19.126Z,99.90
2018-10-03T01:54:47.636Z,99.90
2018-10-03T01:57:16.226Z,99.90
2018-10-03T01:59:44.829Z,99.90
2018-10-03T02:02:13.309Z,99.90
2018-10-03T02:04:41.826Z,99.90
2018-10-03T02:07:10.309Z,99.90
2018-10-03T02:09:38.812Z,99.90
2018-10-03T02:12:07.556Z,99.90
2018-10-03T02:14:36.081Z,99.90
2018-10-03T02:17:04.589Z,99.90
2018-10-03T02:19:33.052Z,99.90
2018-10-03T02:22:01.525Z,99.90
2018-10-03T02:24:29.982Z,99.90
2018-10-03T02:26:58.428Z,99.90
2018-10-03T02:29:26.954Z,99.90
2018-10-03T02:31:55.490Z,99.90
2018-10-03T02:34:24.057Z,99.90
2018-10-03T02:36:52.518Z,99.90
2018-10-03T02:39:20.960Z,99.90
2018-10-03T02:41:49.461Z,99.90
2018-10-03T02:44:18.043Z,99.90
2018-10-03T02:46:46.620Z,99.90
2018-10-03T02:49:15.240Z,99.90
2018-10-03T02:51:43.884Z,99.90
2018-10-03T02:54:12.420Z,99.90
2018-10-03T02:56:40.994Z,99.90
2018-10-03T02:59:09.648Z,99.90
2018-10-03T03:01:38.286Z,99.90
2018-10-03T03:04:06.863Z,99.90
2018-10-03T03:06:35.370Z,99.90
2018-10-03T03:09:04.633Z,99.90
2018-10-03T03:11:33.138Z,99.90
2018-10-03T03:14:01.673Z,99.90
2018-10-03T03:16:30.310Z,99.90
2018-10-03T03:18:58.760Z,99.90
2018-10-03T03:21:27.214Z,99.90
2018-10-03T03:23:55.699Z,99.90
2018-10-03T03:26:24.209Z,99.90
2018-10-03T03:28:52.639Z,99.90
2018-10-03T03:31:21.129Z,99.90
2018-10-03T03:33:49.591Z,99.90
2018-10-03T03:36:18.209Z,99.90
2018-10-03T03:38:46.812Z,99.90
2018-10-03T03:41:15.388Z,99.90
2018-10-03T03:43:43.911Z,99.90
2018-10-03T03:46:12.571Z,99.90
2018-10-03T03:48:41.381Z,99.90
2018-10-03T03:51:28.101Z,99.90
2018-10-03T03:53:56.526Z,99.90
2018-10-03T03:56:25.335Z,99.90
2018-10-03T03:58:53.743Z,99.90
2018-10-03T04:01:22.501Z,99.90
2018-10-03T04:03:51.118Z,99.90
2018-10-03T04:06:19.537Z,99.90
2018-10-03T04:08:48.103Z,99.90
2018-10-03T04:11:16.990Z,99.90
2018-10-03T04:13:45.636Z,99.90
2018-10-03T04:16:14.290Z,99.90
2018-10-03T04:18:42.878Z,99.90
2018-10-03T04:21:11.357Z,99.90
2018-10-03T04:23:39.910Z,99.90
2018-10-03T04:26:08.478Z,99.90
2018-10-03T04:28:36.928Z,99.90
2018-10-03T04:31:05.431Z,99.90
2018-10-03T04:33:33.900Z,99.90
2018-10-03T04:36:02.468Z,99.90
2018-10-03T04:38:30.937Z,99.90
2018-10-03T04:40:59.428Z,99.90
2018-10-03T04:43:27.885Z,99.90
2018-10-03T04:45:56.465Z,99.90
2018-10-03T04:48:25.026Z,99.90
2018-10-03T04:50:53.686Z,99.90
2018-10-03T04:53:22.131Z,99.90
2018-10-03T04:55:50.869Z,99.90
2018-10-03T04:58:19.379Z,99.90
2018-10-03T05:00:47.837Z,99.90
2018-10-03T05:03:16.377Z,99.90
2018-10-03T05:05:44.928Z,99.90
2018-10-03T05:08:13.595Z,99.90
2018-10-03T05:10:42.048Z,99.90
2018-10-03T05:13:10.542Z,99.90
2018-10-03T05:15:38.996Z,99.90
2018-10-03T05:18:07.554Z,99.90
2018-10-03T05:20:35.988Z,99.90
2018-10-03T05:23:04.476Z,99.90
2018-10-03T05:45:06.944Z,99.90
2018-10-03T05:47:35.521Z,99.90
2018-10-03T06:16:24.717Z,99.90
2018-10-03T06:33:00.210Z,99.90
2018-10-03T06:37:14.650Z,99.90
2018-10-03T06:45:02.216Z,99.90
2018-10-03T06:47:30.770Z,99.90
2018-10-03T06:49:59.376Z,99.90
2018-10-03T06:52:28.021Z,99.90
2018-10-03T06:54:57.637Z,99.90
2018-10-03T06:57:26.744Z,99.90
2018-10-03T06:59:55.253Z,99.90
2018-10-03T07:02:23.779Z,99.90
2018-10-03T07:04:52.380Z,99.90
2018-10-03T07:07:20.874Z,99.90
2018-10-03T07:09:49.335Z,99.90
2018-10-03T07:12:18.011Z,99.90
2018-10-03T07:14:46.471Z,99.90
2018-10-03T07:17:15.035Z,99.90
2018-10-03T07:19:43.538Z,99.90
2018-10-03T07:22:12.017Z,99.90
2018-10-03T07:24:40.499Z,99.90
2018-10-03T07:27:09.382Z,99.90
2018-10-03T07:29:38.267Z,99.90
2018-10-03T07:32:07.033Z,99.90
2018-10-03T07:34:35.877Z,99.90
2018-10-03T07:37:04.657Z,99.90
2018-10-03T07:39:33.205Z,99.90
2018-10-03T07:42:01.801Z,99.90
2018-10-03T07:44:30.257Z,99.90
2018-10-03T07:46:58.699Z,99.90
2018-10-03T07:49:27.394Z,99.90
2018-10-03T07:51:56.116Z,99.90
2018-10-03T07:54:24.840Z,99.90
2018-10-03T07:56:53.792Z,99.90
2018-10-03T07:59:22.349Z,99.90
2018-10-03T08:01:50.746Z,99.90
2018-10-03T08:04:19.191Z,99.90
2018-10-03T08:06:47.754Z,99.90
2018-10-03T08:09:16.380Z,99.90
2018-10-03T08:11:45.136Z,99.90
2018-10-03T08:14:14.077Z,99.90
2018-10-03T08:18:05.259Z,99.90
2018-10-03T08:20:34.304Z,99.90
2018-10-03T08:23:02.961Z,99.90
2018-10-03T08:25:31.551Z,99.90
2018-10-03T08:28:00.397Z,99.90
2018-10-03T08:30:29.967Z,99.90
2018-10-03T08:32:58.901Z,99.90
2018-10-03T08:35:27.527Z,99.90
2018-10-03T08:37:56.544Z,99.90
2018-10-03T08:40:25.765Z,99.90
2018-10-03T08:42:57.338Z,99.90
2018-10-03T08:45:26.403Z,99.90
2018-10-03T08:47:55.237Z,99.90
2018-10-03T08:50:23.970Z,99.90
2018-10-03T08:52:52.948Z,99.90
2018-10-03T08:55:22.894Z,99.90
2018-10-03T08:57:51.870Z,99.90
2018-10-03T09:00:20.680Z,99.90
2018-10-03T09:02:49.581Z,99.90
2018-10-03T09:05:18.295Z,99.90
2018-10-03T09:07:47.329Z,99.90
2018-10-03T09:10:16.349Z,99.90
2018-10-03T09:12:46.126Z,99.90
2018-10-03T09:15:15.077Z,99.90
2018-10-03T09:17:44.258Z,99.90
2018-10-03T09:20:12.924Z,99.90
2018-10-03T09:22:41.848Z,99.90
2018-10-03T09:25:10.710Z,98.20
2018-10-03T09:27:39.862Z,98.70
2018-10-03T09:30:09.079Z,92.90
2018-10-03T09:32:37.874Z,85.90
2018-10-03T09:35:06.883Z,73.80
2018-10-03T09:37:35.920Z,76.70
2018-10-03T09:40:04.927Z,73.40
2018-10-03T09:42:33.913Z,67.50
2018-10-03T09:45:03.125Z,65.20
2018-10-03T09:47:31.994Z,63.10
2018-10-03T09:50:00.696Z,59.30
2018-10-03T09:52:30.342Z,58.20
2018-10-03T09:54:59.545Z,56.10
2018-10-03T09:57:29.053Z,54.50
2018-10-03T09:59:58.498Z,54.40
2018-10-03T10:02:27.355Z,55.00
2018-10-03T10:13:41.942Z,54.40
2018-10-03T10:30:43.980Z,59.00
2018-10-03T10:36:42.563Z,99.90
2018-10-03T10:39:28.618Z,99.90
2018-10-03T10:41:57.464Z,99.90
2018-10-03T10:44:26.433Z,99.90
2018-10-03T10:46:55.297Z,99.90
2018-10-03T10:49:24.246Z,99.90
2018-10-03T10:51:53.399Z,99.90
2018-10-03T10:54:22.795Z,99.90
2018-10-03T10:56:51.810Z,99.90
2018-10-03T11:11:13.426Z,99.90
2018-10-03T11:13:42.230Z,99.90
2018-10-03T11:16:10.722Z,99.90
2018-10-03T11:18:39.409Z,99.90
2018-10-03T11:21:08.166Z,99.90
2018-10-03T11:23:36.871Z,99.90
2018-10-03T11:28:37.392Z,99.90
2018-10-03T11:31:06.323Z,98.90
2018-10-03T11:33:35.609Z,96.50
2018-10-03T11:36:04.085Z,96.20
2018-10-03T11:38:32.562Z,94.40
2018-10-03T11:41:01.756Z,93.60
2018-10-03T11:43:30.378Z,94.20
2018-10-03T11:45:58.971Z,96.10
2018-10-03T11:48:27.877Z,97.00
2018-10-03T11:50:59.090Z,99.60
2018-10-03T11:53:27.760Z,99.90
2018-10-03T11:55:56.312Z,99.90
2018-10-03T11:58:28.375Z,99.90
2018-10-03T12:00:57.677Z,99.90
2018-10-03T12:03:26.340Z,99.90
2018-10-03T12:05:55.211Z,99.90
2018-10-03T12:08:23.648Z,99.90
2018-10-03T12:10:52.527Z,99.90
2018-10-03T12:13:21.050Z,99.90
2018-10-03T12:15:49.788Z,99.90
2018-10-03T12:18:18.301Z,99.90
2018-10-03T12:20:46.856Z,99.90
2018-10-03T12:23:15.488Z,99.90
2018-10-03T12:25:43.984Z,99.90
2018-10-03T12:28:12.622Z,99.90
2018-10-03T12:30:41.467Z,99.00
2018-10-03T12:33:10.446Z,97.10
2018-10-03T12:35:39.303Z,93.00
2018-10-03T12:38:08.745Z,85.20
2018-10-03T12:40:37.412Z,84.00
2018-10-03T12:43:06.110Z,84.90
2018-10-03T12:45:36.498Z,86.50
2018-10-03T12:48:05.178Z,88.20
2018-10-03T12:50:33.605Z,90.00
2018-10-03T12:53:03.584Z,89.90
2018-10-03T12:55:32.343Z,87.10
2018-10-03T12:58:01.104Z,82.50
2018-10-03T13:02:41.465Z,77.60
2018-10-03T13:05:10.196Z,71.50
2018-10-03T13:07:38.675Z,64.00
2018-10-03T13:10:07.353Z,66.10
2018-10-03T13:12:36.144Z,68.00
2018-10-03T13:15:05.372Z,66.80
2018-10-03T13:17:35.408Z,65.70
2018-10-03T13:20:05.870Z,66.70
2018-10-03T13:22:34.611Z,66.10
2018-10-03T13:25:03.505Z,66.00
2018-10-03T13:27:32.009Z,61.60
2018-10-03T13:30:38.815Z,60.70
2018-10-03T13:33:38.317Z,62.20
2018-10-03T13:36:06.930Z,64.30
2018-10-03T13:38:35.376Z,66.20
2018-10-03T13:41:04.251Z,66.50
2018-10-03T13:43:33.059Z,67.80
2018-10-03T13:46:01.862Z,65.00
2018-10-03T13:48:30.876Z,64.40
2018-10-03T13:50:59.857Z,64.60
2018-10-03T13:53:28.293Z,66.70
2018-10-03T13:55:56.890Z,68.40
2018-10-03T13:58:25.513Z,69.80
2018-10-03T14:00:54.139Z,71.10
2018-10-03T14:03:22.651Z,71.30
2018-10-03T14:05:51.478Z,72.40
2018-10-03T14:08:20.351Z,71.90
2018-10-03T14:10:48.805Z,72.80
2018-10-03T14:13:18.441Z,74.10
2018-10-03T14:15:46.970Z,72.80
2018-10-03T14:18:15.457Z,71.90
2018-10-03T14:20:43.997Z,73.80
2018-10-03T14:23:12.503Z,72.70
2018-10-03T14:25:40.925Z,70.50
2018-10-03T14:28:09.805Z,70.70
2018-10-03T14:30:38.796Z,69.10
2018-10-03T14:43:50.186Z,71.10
2018-10-03T14:46:18.840Z,72.40
2018-10-03T14:48:47.626Z,73.10
2018-10-03T14:51:16.279Z,75.70
2018-10-03T14:53:45.005Z,75.70
2018-10-03T14:56:16.025Z,76.80
2018-10-03T14:58:56.252Z,78.10
2018-10-03T15:01:25.011Z,79.30
2018-10-03T15:03:54.330Z,80.60
2018-10-03T15:06:23.198Z,80.80
2018-10-03T15:08:52.058Z,82.00
2018-10-03T15:11:23.093Z,83.00
2018-10-03T15:13:52.733Z,83.20
2018-10-03T15:16:23.642Z,84.50
2018-10-03T15:18:52.191Z,85.80
2018-10-03T15:31:51.965Z,83.00
2018-10-03T15:34:20.605Z,81.60
2018-10-03T15:36:51.952Z,82.90
2018-10-03T15:39:21.864Z,83.10
2018-10-03T15:45:14.157Z,81.70
2018-10-03T15:47:42.851Z,82.20
2018-10-03T15:50:11.589Z,82.40
2018-10-03T15:52:41.384Z,81.60
2018-10-03T15:55:09.960Z,82.40
2018-10-03T15:57:38.800Z,81.00
2018-10-03T16:00:08.130Z,80.70
2018-10-03T16:02:38.018Z,80.30
2018-10-03T16:05:06.867Z,81.80
2018-10-03T16:07:38.382Z,82.30
2018-10-03T16:10:07.123Z,83.00
2018-10-03T16:12:35.830Z,84.30
2018-10-03T16:15:04.804Z,82.80
2018-10-03T16:17:33.387Z,83.60
2018-10-03T16:20:01.915Z,85.10
2018-10-03T16:22:30.686Z,84.80
2018-10-03T16:25:05.654Z,85.80
2018-10-03T16:27:34.192Z,86.80
2018-10-03T16:30:03.500Z,88.10
2018-10-03T16:37:20.860Z,90.40
2018-10-03T16:39:49.929Z,90.10
2018-10-03T16:42:18.502Z,89.30
2018-10-03T16:44:47.096Z,90.10
2018-10-03T16:47:15.544Z,90.10
2018-10-03T16:49:44.045Z,90.70
2018-10-03T16:52:12.506Z,90.80
2018-10-03T16:54:41.266Z,91.10
2018-10-03T16:57:09.899Z,92.10
2018-10-03T16:59:38.558Z,92.20
2018-10-03T17:02:07.040Z,92.30
2018-10-03T17:04:35.662Z,93.00
2018-10-03T17:07:04.195Z,93.40
2018-10-03T17:09:32.932Z,93.70
2018-10-03T17:12:01.402Z,94.60
2018-10-03T17:14:37.787Z,94.60
2018-10-03T17:17:13.534Z,95.50
2018-10-03T17:19:42.304Z,97.00
2018-10-03T17:22:10.855Z,98.00
2018-10-03T17:24:39.823Z,99.70
2018-10-03T17:27:08.579Z,99.90
2018-10-03T17:29:37.103Z,99.90
2018-10-03T17:32:05.807Z,99.90
2018-10-03T17:34:34.598Z,99.90
2018-10-03T17:37:03.216Z,99.90
2018-10-03T17:39:31.735Z,99.90
2018-10-03T17:42:01.093Z,99.90
2018-10-03T17:44:29.570Z,99.90
2018-10-03T17:46:58.731Z,99.90
2018-10-03T17:49:27.511Z,99.90
2018-10-03T17:51:56.050Z,99.90
2018-10-03T17:54:24.496Z,99.90
2018-10-03T17:57:24.400Z,99.90
2018-10-03T17:59:53.405Z,99.90
2018-10-03T18:02:21.919Z,99.90
2018-10-03T18:04:52.071Z,99.90
2018-10-03T18:07:20.442Z,99.90
2018-10-03T18:09:48.837Z,99.90
2018-10-03T18:12:17.500Z,99.90
2018-10-03T18:14:46.135Z,99.90
2018-10-03T18:17:14.741Z,99.90
2018-10-03T18:19:43.241Z,99.90
2018-10-03T18:22:11.937Z,99.90
2018-10-03T18:24:40.639Z,99.90
2018-10-03T18:27:09.540Z,99.90
2018-10-03T18:29:38.239Z,99.90
2018-10-03T18:32:07.345Z,99.90
2018-10-03T18:34:35.922Z,99.90
2018-10-03T18:37:04.767Z,99.90
2018-10-03T18:39:33.996Z,99.90
2018-10-03T18:42:03.081Z,99.90
2018-10-03T18:44:32.025Z,99.90
2018-10-03T18:52:23.867Z,99.90
2018-10-03T18:54:52.506Z,99.90
2018-10-03T18:57:21.377Z,99.90
2018-10-03T18:59:50.017Z,99.90
2018-10-03T19:02:18.470Z,99.90
2018-10-03T19:04:46.936Z,99.90
2018-10-03T19:07:15.531Z,99.90
2018-10-03T19:09:44.421Z,99.90
2018-10-03T19:13:32.400Z,99.90
2018-10-03T19:16:00.922Z,99.90
2018-10-03T19:18:29.371Z,99.90
2018-10-03T19:20:57.924Z,99.90
2018-10-03T19:23:26.431Z,99.90
2018-10-03T19:28:15.438Z,99.90
2018-10-03T19:30:44.007Z,99.90
2018-10-03T19:33:12.443Z,99.90
2018-10-03T19:35:40.968Z,99.90
2018-10-03T19:38:09.742Z,99.90
2018-10-03T19:40:38.261Z,99.90
2018-10-03T19:43:06.993Z,99.90
2018-10-03T19:45:35.476Z,99.90
2018-10-03T19:48:04.000Z,99.90
2018-10-03T19:50:32.441Z,99.90
2018-10-03T19:53:00.983Z,99.90
2018-10-03T19:55:29.421Z,99.90
2018-10-03T19:57:57.870Z,99.90
2018-10-03T20:00:26.307Z,99.90
2018-10-03T20:02:54.772Z,99.90
2018-10-03T20:05:23.248Z,99.90
2018-10-03T20:07:51.819Z,99.90
2018-10-03T20:10:20.408Z,99.90
2018-10-03T20:12:48.886Z,99.90
2018-10-03T20:15:17.436Z,99.90
2018-10-03T20:17:46.002Z,99.90
2018-10-03T20:20:14.463Z,99.90
2018-10-03T20:22:42.992Z,99.90
2018-10-03T20:25:11.450Z,99.90
2018-10-03T20:27:40.634Z,99.90
2018-10-03T20:30:09.113Z,99.90
2018-10-03T20:32:37.602Z,99.90
2018-10-03T20:35:06.184Z,99.90
2018-10-03T20:37:34.596Z,99.90
2018-10-03T20:40:03.074Z,99.90
2018-10-03T20:42:31.572Z,99.90
2018-10-03T20:45:00.113Z,99.90
2018-10-03T20:48:43.584Z,99.90
2018-10-03T20:51:12.392Z,99.90
2018-10-03T20:53:40.918Z,99.90
2018-10-03T20:56:09.380Z,99.90
2018-10-03T20:58:50.365Z,99.90
2018-10-03T21:01:18.572Z,99.90
2018-10-03T21:03:46.788Z,99.90
2018-10-03T21:06:15.001Z,99.90
2018-10-03T21:08:43.306Z,99.90
2018-10-03T21:11:11.517Z,99.90
2018-10-03T21:13:39.729Z,99.90
2018-10-03T21:16:07.977Z,99.90
2018-10-03T21:18:36.218Z,99.90
2018-10-03T21:21:04.416Z,99.90
2018-10-03T21:23:32.661Z,99.90
2018-10-03T21:26:00.889Z,99.90
2018-10-03T21:28:29.118Z,99.90
2018-10-03T21:30:57.333Z,99.90
2018-10-03T21:33:25.560Z,99.90
2018-10-03T21:35:53.778Z,99.90
2018-10-03T21:38:22.009Z,99.90
2018-10-03T21:40:50.223Z,99.90
2018-10-03T21:43:18.431Z,99.90
2018-10-03T21:45:46.861Z,99.90
2018-10-03T21:48:15.082Z,99.90
2018-10-03T21:50:43.295Z,99.90
2018-10-03T21:53:11.513Z,99.90
2018-10-03T21:55:39.728Z,99.90
2018-10-03T21:58:07.941Z,99.90
2018-10-03T22:00:41.476Z,99.90
2018-10-03T22:03:09.692Z,99.90
2018-10-03T22:05:37.901Z,99.90
2018-10-03T22:08:06.097Z,99.90
2018-10-03T22:10:34.305Z,99.90
2018-10-03T22:13:02.531Z,99.90
2018-10-03T22:15:30.710Z,99.90
2018-10-03T22:17:58.904Z,99.90
2018-10-03T22:20:27.104Z,99.90
2018-10-03T22:22:55.346Z,99.90
2018-10-03T22:25:23.537Z,99.90
2018-10-03T22:27:51.747Z,99.90
2018-10-03T22:30:19.962Z,99.90
2018-10-03T22:32:48.181Z,99.90
2018-10-03T22:35:16.409Z,99.90
2018-10-03T22:37:44.608Z,99.90
2018-10-03T22:40:12.850Z,99.90
2018-10-03T22:42:41.045Z,99.90
2018-10-03T22:45:09.236Z,99.90
2018-10-03T22:47:37.449Z,99.90
2018-10-03T22:50:05.676Z,99.90
2018-10-03T22:52:33.894Z,99.90
2018-10-03T22:55:02.089Z,99.90
2018-10-03T22:57:30.292Z,99.90
2018-10-03T22:59:58.488Z,99.90
2018-10-03T23:02:26.682Z,99.90
2018-10-03T23:04:54.880Z,99.90
2018-10-03T23:07:23.094Z,99.90
2018-10-03T23:09:51.302Z,99.90
2018-10-03T23:12:19.512Z,99.90
2018-10-03T23:14:47.724Z,99.90
2018-10-03T23:17:15.928Z,99.90
2018-10-03T23:19:44.139Z,99.90
2018-10-03T23:22:12.360Z,99.90
2018-10-03T23:24:40.571Z,99.90
2018-10-03T23:27:08.790Z,99.90
2018-10-03T23:29:37.049Z,99.90
2018-10-03T23:32:05.267Z,99.90
2018-10-03T23:34:33.488Z,99.90
2018-10-03T23:37:01.684Z,99.90
2018-10-03T23:39:29.908Z,99.90
2018-10-03T23:41:58.185Z,99.90
2018-10-03T23:44:26.321Z,99.90
2018-10-03T23:48:41.902Z,99.90
2018-10-03T23:51:10.360Z,99.90
2018-10-03T23:53:38.841Z,99.90
2018-10-03T23:56:07.250Z,99.90
2018-10-03T23:58:35.860Z,99.90
